createdAt,value
2018-08-17T00:00:34.299Z,1009.62
2018-08-17T00:01:14.862Z,1009.6
2018-08-17T00:01:55.419Z,1009.58
2018-08-17T00:02:35.986Z,1009.6
2018-08-17T00:03:16.549Z,1009.59
2018-08-17T00:03:57.115Z,1009.53
2018-08-17T00:04:37.668Z,1009.57
2018-08-17T00:05:18.301Z,1009.53
2018-08-17T00:05:58.821Z,1009.54
2018-08-17T00:06:39.428Z,1009.55
2018-08-17T00:07:20.043Z,1009.56
2018-08-17T00:08:00.620Z,1009.57
2018-08-17T00:08:41.195Z,1009.52
2018-08-17T00:09:21.749Z,1009.56
2018-08-17T00:10:02.324Z,1009.52
2018-08-17T00:10:42.903Z,1009.57
2018-08-17T00:11:23.460Z,1009.57
2018-08-17T00:12:04.034Z,1009.55
2018-08-17T00:12:44.600Z,1009.53
2018-08-17T00:13:25.172Z,1009.57
2018-08-17T00:14:05.732Z,1009.58
2018-08-17T00:14:46.290Z,1009.56
2018-08-17T00:15:26.887Z,1009.56
2018-08-17T00:16:07.463Z,1009.56
2018-08-17T00:16:48.024Z,1009.55
2018-08-17T00:17:28.600Z,1009.55
2018-08-17T00:18:09.174Z,1009.5
2018-08-17T00:18:49.749Z,1009.57
2018-08-17T00:19:30.338Z,1009.53
2018-08-17T00:20:10.916Z,1009.52
2018-08-17T00:20:51.473Z,1009.51
2018-08-17T00:21:32.056Z,1009.5
2018-08-17T00:22:12.625Z,1009.49
2018-08-17T00:22:53.194Z,1009.51
2018-08-17T00:23:33.790Z,1009.51
2018-08-17T00:24:14.362Z,1009.48
2018-08-17T00:24:54.923Z,1009.52
2018-08-17T00:25:35.496Z,1009.53
2018-08-17T00:26:16.100Z,1009.51
2018-08-17T00:26:56.680Z,1009.46
2018-08-17T00:27:37.245Z,1009.55
2018-08-17T00:28:17.817Z,1009.5
2018-08-17T00:28:58.373Z,1009.51
2018-08-17T00:29:38.918Z,1009.53
2018-08-17T00:30:19.492Z,1009.53
2018-08-17T00:31:00.056Z,1009.5
2018-08-17T00:31:40.635Z,1009.49
2018-08-17T00:32:21.195Z,1009.52
2018-08-17T00:33:01.776Z,1009.5
2018-08-17T00:33:42.335Z,1009.52
2018-08-17T00:34:22.899Z,1009.54
2018-08-17T00:35:03.460Z,1009.53
2018-08-17T00:35:44.102Z,1009.53
2018-08-17T00:36:24.660Z,1009.47
2018-08-17T00:37:05.242Z,1009.54
2018-08-17T00:37:45.845Z,1009.53
2018-08-17T00:38:26.463Z,1009.46
2018-08-17T00:39:07.035Z,1009.48
2018-08-17T00:39:47.615Z,1009.49
2018-08-17T00:40:28.185Z,1009.47
2018-08-17T00:41:08.754Z,1009.48
2018-08-17T00:41:49.321Z,1009.5
2018-08-17T00:42:29.888Z,1009.49
2018-08-17T00:43:10.452Z,1009.49
2018-08-17T00:43:51.041Z,1009.46
2018-08-17T00:44:31.608Z,1009.46
2018-08-17T00:45:12.196Z,1009.46
2018-08-17T00:45:52.775Z,1009.45
2018-08-17T00:46:33.354Z,1009.46
2018-08-17T00:47:13.939Z,1009.47
2018-08-17T00:47:54.520Z,1009.45
2018-08-17T00:48:35.064Z,1009.44
2018-08-17T00:49:15.644Z,1009.42
2018-08-17T00:49:56.225Z,1009.44
2018-08-17T00:50:36.801Z,1009.45
2018-08-17T00:51:17.357Z,1009.44
2018-08-17T00:51:57.935Z,1009.47
2018-08-17T00:52:38.504Z,1009.49
2018-08-17T00:53:19.087Z,1009.46
2018-08-17T00:53:59.655Z,1009.44
2018-08-17T00:54:40.225Z,1009.43
2018-08-17T00:55:20.807Z,1009.44
2018-08-17T00:56:01.383Z,1009.44
2018-08-17T00:56:41.942Z,1009.44
2018-08-17T00:57:22.521Z,1009.45
2018-08-17T00:58:03.086Z,1009.44
2018-08-17T00:58:43.657Z,1009.45
2018-08-17T00:59:24.220Z,1009.42
2018-08-17T01:00:04.791Z,1009.44
2018-08-17T01:00:45.382Z,1009.43
2018-08-17T01:01:25.941Z,1009.41
2018-08-17T01:02:06.504Z,1009.41
2018-08-17T01:02:47.062Z,1009.42
2018-08-17T01:03:27.625Z,1009.39
2018-08-17T01:04:08.201Z,1009.4
2018-08-17T01:04:48.762Z,1009.39
2018-08-17T01:05:29.325Z,1009.42
2018-08-17T01:06:09.886Z,1009.44
2018-08-17T01:06:50.460Z,1009.43
2018-08-17T01:07:31.029Z,1009.46
2018-08-17T01:08:11.580Z,1009.42
2018-08-17T01:08:52.156Z,1009.43
2018-08-17T01:09:32.733Z,1009.41
2018-08-17T01:10:13.305Z,1009.45
2018-08-17T01:10:53.928Z,1009.44
2018-08-17T01:11:34.543Z,1009.4
2018-08-17T01:12:15.102Z,1009.42
2018-08-17T01:12:55.670Z,1009.41
2018-08-17T01:13:36.238Z,1009.41
2018-08-17T01:14:16.792Z,1009.43
2018-08-17T01:14:57.356Z,1009.38
2018-08-17T01:15:37.945Z,1009.43
2018-08-17T01:16:18.514Z,1009.43
2018-08-17T01:16:59.075Z,1009.43
2018-08-17T01:17:39.649Z,1009.45
2018-08-17T01:18:20.215Z,1009.46
2018-08-17T01:19:00.771Z,1009.46
2018-08-17T01:19:41.350Z,1009.48
2018-08-17T01:20:21.906Z,1009.47
2018-08-17T01:21:02.470Z,1009.47
2018-08-17T01:21:43.027Z,1009.47
2018-08-17T01:22:23.595Z,1009.48
2018-08-17T01:23:04.184Z,1009.46
2018-08-17T01:23:44.740Z,1009.52
2018-08-17T01:24:25.306Z,1009.45
2018-08-17T01:25:05.890Z,1009.46
2018-08-17T01:25:46.450Z,1009.44
2018-08-17T01:26:27.026Z,1009.48
2018-08-17T01:27:07.588Z,1009.46
2018-08-17T01:27:48.141Z,1009.43
2018-08-17T01:28:28.731Z,1009.44
2018-08-17T01:29:09.303Z,1009.42
2018-08-17T01:29:49.868Z,1009.43
2018-08-17T01:30:30.439Z,1009.4
2018-08-17T01:31:10.988Z,1009.42
2018-08-17T01:31:51.564Z,1009.41
2018-08-17T01:32:32.137Z,1009.42
2018-08-17T01:33:12.706Z,1009.42
2018-08-17T01:33:53.265Z,1009.4
2018-08-17T01:34:33.827Z,1009.38
2018-08-17T01:35:14.379Z,1009.46
2018-08-17T01:35:54.942Z,1009.38
2018-08-17T01:36:35.484Z,1009.42
2018-08-17T01:37:16.039Z,1009.37
2018-08-17T01:37:56.615Z,1009.39
2018-08-17T01:38:37.198Z,1009.41
2018-08-17T01:39:17.774Z,1009.39
2018-08-17T01:39:58.359Z,1009.38
2018-08-17T01:40:38.922Z,1009.38
2018-08-17T01:41:19.503Z,1009.39
2018-08-17T01:42:00.085Z,1009.35
2018-08-17T01:42:40.655Z,1009.37
2018-08-17T01:43:21.222Z,1009.37
2018-08-17T01:44:01.778Z,1009.35
2018-08-17T01:44:42.340Z,1009.38
2018-08-17T01:45:22.917Z,1009.39
2018-08-17T01:46:03.481Z,1009.37
2018-08-17T01:46:44.040Z,1009.37
2018-08-17T01:47:24.604Z,1009.35
2018-08-17T01:48:05.181Z,1009.32
2018-08-17T01:48:45.741Z,1009.34
2018-08-17T01:49:26.319Z,1009.35
2018-08-17T01:50:06.868Z,1009.33
2018-08-17T01:50:47.435Z,1009.32
2018-08-17T01:51:28.045Z,1009.33
2018-08-17T01:52:08.646Z,1009.33
2018-08-17T01:52:49.189Z,1009.29
2018-08-17T01:53:29.754Z,1009.31
2018-08-17T01:54:10.320Z,1009.31
2018-08-17T01:54:50.887Z,1009.3
2018-08-17T01:55:31.451Z,1009.28
2018-08-17T01:56:12.023Z,1009.28
2018-08-17T01:56:52.594Z,1009.26
2018-08-17T01:57:33.167Z,1009.27
2018-08-17T01:58:13.742Z,1009.26
2018-08-17T01:58:54.297Z,1009.24
2018-08-17T01:59:34.861Z,1009.25
2018-08-17T02:00:15.439Z,1009.26
2018-08-17T02:00:56.029Z,1009.26
2018-08-17T02:01:36.592Z,1009.28
2018-08-17T02:02:17.186Z,1009.27
2018-08-17T02:02:57.752Z,1009.29
2018-08-17T02:03:38.320Z,1009.25
2018-08-17T02:04:18.876Z,1009.24
2018-08-17T02:04:59.464Z,1009.29
2018-08-17T02:05:40.030Z,1009.26
2018-08-17T02:06:20.627Z,1009.26
2018-08-17T02:07:01.219Z,1009.25
2018-08-17T02:07:41.774Z,1009.25
2018-08-17T02:08:22.342Z,1009.22
2018-08-17T02:09:02.953Z,1009.2
2018-08-17T02:09:43.591Z,1009.23
2018-08-17T02:10:24.162Z,1009.21
2018-08-17T02:11:04.731Z,1009.24
2018-08-17T02:11:45.281Z,1009.22
2018-08-17T02:12:25.858Z,1009.22
2018-08-17T02:13:06.426Z,1009.22
2018-08-17T02:13:46.994Z,1009.23
2018-08-17T02:14:27.630Z,1009.24
2018-08-17T02:15:08.223Z,1009.22
2018-08-17T02:15:48.770Z,1009.23
2018-08-17T02:16:29.331Z,1009.24
2018-08-17T02:17:09.903Z,1009.21
2018-08-17T02:17:50.453Z,1009.23
2018-08-17T02:18:31.008Z,1009.18
2018-08-17T02:19:11.578Z,1009.23
2018-08-17T02:19:52.182Z,1009.18
2018-08-17T02:20:32.764Z,1009.19
2018-08-17T02:21:13.292Z,1009.19
2018-08-17T02:21:53.860Z,1009.19
2018-08-17T02:22:34.443Z,1009.2
2018-08-17T02:23:15.013Z,1009.17
2018-08-17T02:23:55.575Z,1009.21
2018-08-17T02:24:36.146Z,1009.17
2018-08-17T02:25:16.703Z,1009.23
2018-08-17T02:25:57.268Z,1009.2
2018-08-17T02:26:37.824Z,1009.19
2018-08-17T02:27:18.392Z,1009.19
2018-08-17T02:27:58.955Z,1009.18
2018-08-17T02:28:39.543Z,1009.21
2018-08-17T02:29:20.097Z,1009.23
2018-08-17T02:30:00.685Z,1009.22
2018-08-17T02:30:41.278Z,1009.23
2018-08-17T02:31:21.870Z,1009.2
2018-08-17T02:32:02.457Z,1009.25
2018-08-17T02:32:43.021Z,1009.24
2018-08-17T02:33:23.631Z,1009.24
2018-08-17T02:34:04.193Z,1009.22
2018-08-17T02:34:44.759Z,1009.22
2018-08-17T02:35:25.339Z,1009.18
2018-08-17T02:36:05.904Z,1009.21
2018-08-17T02:36:46.481Z,1009.23
2018-08-17T02:37:27.062Z,1009.22
2018-08-17T02:38:07.619Z,1009.22
2018-08-17T02:38:48.185Z,1009.22
2018-08-17T02:39:28.785Z,1009.2
2018-08-17T02:40:09.434Z,1009.2
2018-08-17T02:40:49.995Z,1009.16
2018-08-17T02:41:30.553Z,1009.21
2018-08-17T02:42:11.108Z,1009.2
2018-08-17T02:42:51.661Z,1009.22
2018-08-17T02:43:32.267Z,1009.22
2018-08-17T02:44:12.833Z,1009.22
2018-08-17T02:44:53.398Z,1009.22
2018-08-17T02:45:33.953Z,1009.23
2018-08-17T02:46:14.528Z,1009.2
2018-08-17T02:46:55.114Z,1009.18
2018-08-17T02:47:35.682Z,1009.21
2018-08-17T02:48:16.228Z,1009.16
2018-08-17T02:48:56.797Z,1009.13
2018-08-17T02:49:37.356Z,1009.14
2018-08-17T02:50:17.913Z,1009.16
2018-08-17T02:50:58.469Z,1009.13
2018-08-17T02:51:39.028Z,1009.15
2018-08-17T02:52:19.586Z,1009.12
2018-08-17T02:53:00.158Z,1009.12
2018-08-17T02:53:40.724Z,1009.15
2018-08-17T02:54:21.277Z,1009.1
2018-08-17T02:55:01.842Z,1009.11
2018-08-17T02:55:42.396Z,1009.11
2018-08-17T02:56:22.956Z,1009.13
2018-08-17T02:57:03.525Z,1009.1
2018-08-17T02:57:44.105Z,1009.15
2018-08-17T02:58:24.676Z,1009.16
2018-08-17T02:59:05.273Z,1009.09
2018-08-17T02:59:45.839Z,1009.17
2018-08-17T03:00:26.469Z,1009.13
2018-08-17T03:01:07.007Z,1009.13
2018-08-17T03:01:47.580Z,1009.13
2018-08-17T03:02:28.135Z,1009.13
2018-08-17T03:03:08.695Z,1009.13
2018-08-17T03:03:49.269Z,1009.14
2018-08-17T03:04:29.847Z,1009.13
2018-08-17T03:05:10.411Z,1009.13
2018-08-17T03:05:50.990Z,1009.13
2018-08-17T03:06:31.546Z,1009.13
2018-08-17T03:07:12.099Z,1009.09
2018-08-17T03:07:52.678Z,1009.13
2018-08-17T03:08:33.260Z,1009.12
2018-08-17T03:09:13.850Z,1009.09
2018-08-17T03:09:54.418Z,1009.12
2018-08-17T03:10:34.996Z,1009.1
2018-08-17T03:11:15.556Z,1009.07
2018-08-17T03:11:56.134Z,1009.07
2018-08-17T03:12:36.692Z,1009.1
2018-08-17T03:13:17.273Z,1009.08
2018-08-17T03:13:57.819Z,1009.08
2018-08-17T03:14:38.371Z,1009.1
2018-08-17T03:15:18.988Z,1009.08
2018-08-17T03:15:59.516Z,1009.07
2018-08-17T03:16:40.129Z,1009.11
2018-08-17T03:17:20.712Z,1009.04
2018-08-17T03:18:01.319Z,1009.08
2018-08-17T03:18:41.852Z,1009.06
2018-08-17T03:19:22.424Z,1009.1
2018-08-17T03:20:02.983Z,1009.07
2018-08-17T03:20:43.539Z,1009.05
2018-08-17T03:21:24.101Z,1009.09
2018-08-17T03:22:04.687Z,1009.11
2018-08-17T03:22:45.244Z,1009.11
2018-08-17T03:23:25.811Z,1009.12
2018-08-17T03:24:06.416Z,1009.08
2018-08-17T03:24:46.989Z,1009.1
2018-08-17T03:25:27.547Z,1009.08
2018-08-17T03:26:08.118Z,1009.1
2018-08-17T03:26:48.722Z,1009.1
2018-08-17T03:27:29.270Z,1009.09
2018-08-17T03:28:09.836Z,1009.09
2018-08-17T03:28:50.404Z,1009.07
2018-08-17T03:29:30.958Z,1009.1
2018-08-17T03:30:11.554Z,1009.08
2018-08-17T03:30:52.123Z,1009.1
2018-08-17T03:31:32.692Z,1009.1
2018-08-17T03:32:13.254Z,1009.14
2018-08-17T03:32:53.795Z,1009.1
2018-08-17T03:33:34.368Z,1009.13
2018-08-17T03:34:14.926Z,1009.13
2018-08-17T03:34:55.508Z,1009.14
2018-08-17T03:35:36.072Z,1009.11
2018-08-17T03:36:16.675Z,1009.12
2018-08-17T03:36:57.275Z,1009.13
2018-08-17T03:37:37.820Z,1009.13
2018-08-17T03:38:18.392Z,1009.13
2018-08-17T03:38:58.951Z,1009.14
2018-08-17T03:39:39.522Z,1009.1
2018-08-17T03:40:20.158Z,1009.12
2018-08-17T03:41:00.728Z,1009.11
2018-08-17T03:41:41.302Z,1009.1
2018-08-17T03:42:21.859Z,1009.12
2018-08-17T03:43:02.427Z,1009.14
2018-08-17T03:43:43.022Z,1009.1
2018-08-17T03:44:23.582Z,1009.17
2018-08-17T03:45:04.152Z,1009.14
2018-08-17T03:45:44.718Z,1009.15
2018-08-17T03:46:25.275Z,1009.14
2018-08-17T03:47:05.840Z,1009.19
2018-08-17T03:47:46.452Z,1009.16
2018-08-17T03:48:27.013Z,1009.21
2018-08-17T03:49:07.579Z,1009.2
2018-08-17T03:49:48.148Z,1009.2
2018-08-17T03:50:28.719Z,1009.17
2018-08-17T03:51:09.271Z,1009.2
2018-08-17T03:51:49.827Z,1009.19
2018-08-17T03:52:30.435Z,1009.22
2018-08-17T03:53:10.995Z,1009.2
2018-08-17T03:53:51.562Z,1009.21
2018-08-17T03:54:32.486Z,1009.21
2018-08-17T03:55:13.355Z,1009.19
2018-08-17T03:55:53.878Z,1009.2
2018-08-17T03:56:34.464Z,1009.21
2018-08-17T03:57:15.396Z,1009.2
2018-08-17T03:57:56.724Z,1009.21
2018-08-17T03:58:37.306Z,1009.17
2018-08-17T03:59:17.867Z,1009.21
2018-08-17T03:59:59.422Z,1009.18
2018-08-17T04:00:40.013Z,1009.22
2018-08-17T04:01:20.832Z,1009.19
2018-08-17T04:02:01.571Z,1009.18
2018-08-17T04:02:42.146Z,1009.21
2018-08-17T04:03:22.710Z,1009.18
2018-08-17T04:04:03.310Z,1009.18
2018-08-17T04:04:43.869Z,1009.25
2018-08-17T04:05:24.477Z,1009.23
2018-08-17T04:06:05.179Z,1009.19
2018-08-17T04:06:45.788Z,1009.2
2018-08-17T04:07:26.351Z,1009.19
2018-08-17T04:08:06.909Z,1009.18
2018-08-17T04:08:47.478Z,1009.23
2018-08-17T04:09:28.078Z,1009.15
2018-08-17T04:10:08.647Z,1009.17
2018-08-17T04:10:49.205Z,1009.23
2018-08-17T04:11:29.759Z,1009.23
2018-08-17T04:12:10.328Z,1009.22
2018-08-17T04:12:50.885Z,1009.22
2018-08-17T04:13:31.476Z,1009.22
2018-08-17T04:14:12.037Z,1009.2
2018-08-17T04:14:52.601Z,1009.24
2018-08-17T04:15:33.269Z,1009.2
2018-08-17T04:16:13.754Z,1009.25
2018-08-17T04:16:54.318Z,1009.2
2018-08-17T04:17:34.889Z,1009.2
2018-08-17T04:18:15.467Z,1009.22
2018-08-17T04:18:56.046Z,1009.23
2018-08-17T04:19:36.617Z,1009.21
2018-08-17T04:20:17.174Z,1009.21
2018-08-17T04:20:57.734Z,1009.2
2018-08-17T04:21:38.305Z,1009.22
2018-08-17T04:22:18.868Z,1009.2
2018-08-17T04:22:59.440Z,1009.18
2018-08-17T04:23:40.021Z,1009.2
2018-08-17T04:24:20.582Z,1009.19
2018-08-17T04:25:01.147Z,1009.22
2018-08-17T04:25:41.712Z,1009.23
2018-08-17T04:26:22.280Z,1009.24
2018-08-17T04:27:02.847Z,1009.3
2018-08-17T04:27:43.420Z,1009.21
2018-08-17T04:28:23.983Z,1009.27
2018-08-17T04:29:04.535Z,1009.27
2018-08-17T04:29:45.099Z,1009.26
2018-08-17T04:30:25.668Z,1009.25
2018-08-17T04:31:06.367Z,1009.26
2018-08-17T04:31:46.914Z,1009.32
2018-08-17T04:32:27.454Z,1009.29
2018-08-17T04:33:08.008Z,1009.29
2018-08-17T04:33:48.570Z,1009.3
2018-08-17T04:34:29.147Z,1009.28
2018-08-17T04:35:09.714Z,1009.31
2018-08-17T04:35:50.281Z,1009.32
2018-08-17T04:36:30.846Z,1009.36
2018-08-17T04:37:11.434Z,1009.34
2018-08-17T04:37:51.950Z,1009.32
2018-08-17T04:38:32.546Z,1009.33
2018-08-17T04:39:13.111Z,1009.32
2018-08-17T04:39:53.688Z,1009.34
2018-08-17T04:40:34.257Z,1009.34
2018-08-17T04:41:14.829Z,1009.34
2018-08-17T04:41:55.394Z,1009.35
2018-08-17T04:42:35.958Z,1009.34
2018-08-17T04:43:16.513Z,1009.38
2018-08-17T04:43:57.080Z,1009.39
2018-08-17T04:44:37.648Z,1009.39
2018-08-17T04:45:18.215Z,1009.38
2018-08-17T04:45:58.786Z,1009.35
2018-08-17T04:46:39.361Z,1009.38
2018-08-17T04:47:19.933Z,1009.36
2018-08-17T04:48:00.526Z,1009.37
2018-08-17T04:48:41.086Z,1009.37
2018-08-17T04:49:21.688Z,1009.37
2018-08-17T04:50:02.225Z,1009.38
2018-08-17T04:50:42.914Z,1009.38
2018-08-17T04:51:23.613Z,1009.34
2018-08-17T04:52:04.181Z,1009.35
2018-08-17T04:52:44.813Z,1009.35
2018-08-17T04:53:25.380Z,1009.36
2018-08-17T04:54:05.966Z,1009.35
2018-08-17T04:54:46.666Z,1009.36
2018-08-17T04:55:27.221Z,1009.37
2018-08-17T04:56:07.793Z,1009.37
2018-08-17T04:56:48.367Z,1009.39
2018-08-17T04:57:28.930Z,1009.38
2018-08-17T04:58:09.529Z,1009.35
2018-08-17T04:58:50.180Z,1009.36
2018-08-17T04:59:30.725Z,1009.37
2018-08-17T05:00:11.293Z,1009.39
2018-08-17T05:00:51.860Z,1009.36
2018-08-17T05:01:32.458Z,1009.35
2018-08-17T05:02:13.033Z,1009.36
2018-08-17T05:02:53.574Z,1009.35
2018-08-17T05:03:34.140Z,1009.38
2018-08-17T05:04:14.733Z,1009.34
2018-08-17T05:04:55.288Z,1009.36
2018-08-17T05:05:35.854Z,1009.37
2018-08-17T05:06:16.436Z,1009.36
2018-08-17T05:06:57.017Z,1009.36
2018-08-17T05:07:37.571Z,1009.38
2018-08-17T05:08:18.122Z,1009.38
2018-08-17T05:08:58.729Z,1009.39
2018-08-17T05:09:39.428Z,1009.37
2018-08-17T05:10:20.003Z,1009.4
2018-08-17T05:11:00.572Z,1009.4
2018-08-17T05:11:41.153Z,1009.43
2018-08-17T05:12:21.734Z,1009.4
2018-08-17T05:13:02.300Z,1009.41
2018-08-17T05:13:42.871Z,1009.42
2018-08-17T05:14:23.451Z,1009.44
2018-08-17T05:15:04.039Z,1009.44
2018-08-17T05:15:44.632Z,1009.42
2018-08-17T05:16:25.203Z,1009.41
2018-08-17T05:17:05.782Z,1009.44
2018-08-17T05:17:46.366Z,1009.41
2018-08-17T05:18:26.937Z,1009.42
2018-08-17T05:19:07.514Z,1009.44
2018-08-17T05:19:48.138Z,1009.43
2018-08-17T05:20:28.706Z,1009.43
2018-08-17T05:21:09.274Z,1009.39
2018-08-17T05:21:49.827Z,1009.42
2018-08-17T05:22:30.410Z,1009.4
2018-08-17T05:23:10.966Z,1009.43
2018-08-17T05:23:51.522Z,1009.42
2018-08-17T05:24:32.102Z,1009.42
2018-08-17T05:25:12.655Z,1009.46
2018-08-17T05:25:53.216Z,1009.45
2018-08-17T05:26:33.779Z,1009.45
2018-08-17T05:27:14.393Z,1009.42
2018-08-17T05:27:54.968Z,1009.5
2018-08-17T05:28:35.535Z,1009.47
2018-08-17T05:29:16.090Z,1009.43
2018-08-17T05:29:56.675Z,1009.46
2018-08-17T05:30:37.251Z,1009.46
2018-08-17T05:31:17.829Z,1009.48
2018-08-17T05:31:58.403Z,1009.47
2018-08-17T05:32:39.021Z,1009.49
2018-08-17T05:33:19.578Z,1009.51
2018-08-17T05:34:00.149Z,1009.54
2018-08-17T05:34:40.706Z,1009.52
2018-08-17T05:35:21.264Z,1009.54
2018-08-17T05:36:01.913Z,1009.53
2018-08-17T05:36:42.645Z,1009.53
2018-08-17T05:37:23.080Z,1009.57
2018-08-17T05:38:03.652Z,1009.53
2018-08-17T05:38:44.215Z,1009.59
2018-08-17T05:39:24.778Z,1009.56
2018-08-17T05:40:05.345Z,1009.55
2018-08-17T05:40:45.936Z,1009.56
2018-08-17T05:41:26.589Z,1009.55
2018-08-17T05:42:07.139Z,1009.56
2018-08-17T05:42:47.723Z,1009.6
2018-08-17T05:43:28.288Z,1009.57
2018-08-17T05:44:08.860Z,1009.59
2018-08-17T05:44:49.446Z,1009.58
2018-08-17T05:45:30.073Z,1009.6
2018-08-17T05:46:10.614Z,1009.6
2018-08-17T05:46:51.189Z,1009.6
2018-08-17T05:47:31.751Z,1009.59
2018-08-17T05:48:12.396Z,1009.59
2018-08-17T05:48:53.262Z,1009.61
2018-08-17T05:49:33.851Z,1009.62
2018-08-17T05:50:14.527Z,1009.59
2018-08-17T05:50:56.660Z,1009.59
2018-08-17T05:51:37.250Z,1009.6
2018-08-17T05:52:17.794Z,1009.6
2018-08-17T05:52:58.375Z,1009.6
2018-08-17T05:53:38.963Z,1009.63
2018-08-17T05:54:19.643Z,1009.64
2018-08-17T05:55:00.214Z,1009.62
2018-08-17T05:55:40.844Z,1009.66
2018-08-17T05:56:21.371Z,1009.61
2018-08-17T05:57:02.119Z,1009.6
2018-08-17T05:57:42.714Z,1009.64
2018-08-17T05:58:23.263Z,1009.62
2018-08-17T05:59:03.859Z,1009.59
2018-08-17T05:59:44.460Z,1009.62
2018-08-17T06:00:25.008Z,1009.64
2018-08-17T06:01:05.646Z,1009.65
2018-08-17T06:01:46.225Z,1009.64
2018-08-17T06:02:26.777Z,1009.64
2018-08-17T06:03:07.434Z,1009.63
2018-08-17T06:03:48.006Z,1009.65
2018-08-17T06:04:28.581Z,1009.67
2018-08-17T06:05:09.132Z,1009.67
2018-08-17T06:05:49.698Z,1009.69
2018-08-17T06:06:30.267Z,1009.71
2018-08-17T06:07:11.098Z,1009.69
2018-08-17T06:07:51.696Z,1009.67
2018-08-17T06:08:32.486Z,1009.7
2018-08-17T06:09:13.047Z,1009.68
2018-08-17T06:09:53.868Z,1009.69
2018-08-17T06:10:34.517Z,1009.7
2018-08-17T06:11:15.328Z,1009.73
2018-08-17T06:11:55.706Z,1009.7
2018-08-17T06:12:36.741Z,1009.74
2018-08-17T06:13:17.317Z,1009.71
2018-08-17T06:13:58.302Z,1009.71
2018-08-17T06:14:38.885Z,1009.69
2018-08-17T06:15:19.470Z,1009.69
2018-08-17T06:16:00.052Z,1009.73
2018-08-17T06:16:40.608Z,1009.71
2018-08-17T06:17:21.171Z,1009.76
2018-08-17T06:18:01.740Z,1009.78
2018-08-17T06:18:42.325Z,1009.8
2018-08-17T06:19:22.981Z,1009.81
2018-08-17T06:20:03.454Z,1009.8
2018-08-17T06:20:44.060Z,1009.82
2018-08-17T06:21:24.619Z,1009.78
2018-08-17T06:22:05.215Z,1009.77
2018-08-17T06:22:45.784Z,1009.78
2018-08-17T06:23:26.386Z,1009.76
2018-08-17T06:24:06.952Z,1009.72
2018-08-17T06:24:47.528Z,1009.72
2018-08-17T06:25:28.105Z,1009.71
2018-08-17T06:26:08.699Z,1009.72
2018-08-17T06:26:49.273Z,1009.73
2018-08-17T06:29:14.199Z,1009.75
2018-08-17T06:29:54.761Z,1009.76
2018-08-17T06:30:35.595Z,1009.77
2018-08-17T06:31:16.305Z,1009.73
2018-08-17T06:31:56.983Z,1009.75
2018-08-17T06:32:37.538Z,1009.79
2018-08-17T06:33:18.135Z,1009.8
2018-08-17T06:33:58.739Z,1009.79
2018-08-17T06:34:39.354Z,1009.8
2018-08-17T06:35:19.934Z,1009.84
2018-08-17T06:36:00.598Z,1009.87
2018-08-17T06:36:41.116Z,1009.86
2018-08-17T06:37:21.770Z,1009.85
2018-08-17T06:38:02.291Z,1009.81
2018-08-17T06:38:42.845Z,1009.85
2018-08-17T06:39:23.600Z,1009.85
2018-08-17T06:40:04.242Z,1009.89
2018-08-17T06:40:44.810Z,1009.84
2018-08-17T06:41:25.390Z,1009.85
2018-08-17T06:42:05.950Z,1009.82
2018-08-17T06:42:46.526Z,1009.83
2018-08-17T06:43:27.147Z,1009.85
2018-08-17T06:44:07.685Z,1009.82
2018-08-17T06:44:48.364Z,1009.79
2018-08-17T06:45:33.630Z,1009.82
2018-08-17T06:46:14.227Z,1009.84
2018-08-17T06:46:54.832Z,1009.83
2018-08-17T06:47:35.424Z,1009.86
2018-08-17T06:48:16.663Z,1009.87
2018-08-17T06:48:57.272Z,1009.84
2018-08-17T06:49:38.093Z,1009.83
2018-08-17T06:50:19.054Z,1009.84
2018-08-17T06:50:59.800Z,1009.9
2018-08-17T06:51:40.274Z,1009.86
2018-08-17T06:52:20.882Z,1009.84
2018-08-17T06:53:01.482Z,1009.91
2018-08-17T06:53:42.412Z,1009.86
2018-08-17T06:54:23.038Z,1009.89
2018-08-17T06:55:03.699Z,1009.91
2018-08-17T06:55:44.273Z,1009.91
2018-08-17T06:56:25.011Z,1009.9
2018-08-17T06:57:05.870Z,1009.85
2018-08-17T06:57:46.651Z,1009.86
2018-08-17T06:58:27.389Z,1009.86
2018-08-17T06:59:08.375Z,1009.82
2018-08-17T06:59:49.203Z,1009.82
2018-08-17T07:00:29.966Z,1009.85
2018-08-17T07:01:10.759Z,1009.85
2018-08-17T07:01:51.437Z,1009.82
2018-08-17T07:02:31.998Z,1009.86
2018-08-17T07:03:19.386Z,1009.82
2018-08-17T07:04:00.295Z,1009.84
2018-08-17T07:04:41.167Z,1009.84
2018-08-17T07:05:21.782Z,1009.85
2018-08-17T07:06:02.340Z,1009.84
2018-08-17T07:06:42.921Z,1009.85
2018-08-17T07:07:23.527Z,1009.83
2018-08-17T07:08:04.160Z,1009.82
2018-08-17T07:08:44.851Z,1009.88
2018-08-17T07:09:25.632Z,1009.9
2018-08-17T07:10:06.480Z,1009.87
2018-08-17T07:10:47.061Z,1009.86
2018-08-17T07:11:27.645Z,1009.87
2018-08-17T07:12:08.259Z,1009.84
2018-08-17T07:12:48.818Z,1009.82
2018-08-17T07:13:29.445Z,1009.86
2018-08-17T07:14:10.120Z,1009.88
2018-08-17T07:14:50.714Z,1009.83
2018-08-17T07:15:31.295Z,1009.82
2018-08-17T07:16:11.875Z,1009.84
2018-08-17T07:16:52.475Z,1009.82
2018-08-17T07:17:33.036Z,1009.81
2018-08-17T07:18:13.611Z,1009.8
2018-08-17T07:18:54.183Z,1009.81
2018-08-17T07:19:34.769Z,1009.85
2018-08-17T07:20:15.327Z,1009.82
2018-08-17T07:20:55.898Z,1009.82
2018-08-17T07:21:36.533Z,1009.83
2018-08-17T07:22:17.097Z,1009.89
2018-08-17T07:22:57.736Z,1009.84
2018-08-17T07:23:38.324Z,1009.89
2018-08-17T07:24:18.917Z,1009.83
2018-08-17T07:24:59.541Z,1009.9
2018-08-17T07:25:40.212Z,1009.89
2018-08-17T07:26:20.809Z,1009.85
2018-08-17T07:27:01.380Z,1009.87
2018-08-17T07:27:41.986Z,1009.88
2018-08-17T07:28:22.558Z,1009.86
2018-08-17T07:29:03.119Z,1009.89
2018-08-17T07:29:43.695Z,1009.9
2018-08-17T07:30:24.308Z,1009.92
2018-08-17T07:31:04.901Z,1009.91
2018-08-17T07:31:45.639Z,1009.88
2018-08-17T07:32:26.284Z,1009.95
2018-08-17T07:33:06.965Z,1009.92
2018-08-17T07:33:47.593Z,1009.96
2018-08-17T07:34:28.141Z,1009.94
2018-08-17T07:35:08.742Z,1009.92
2018-08-17T07:35:49.409Z,1009.97
2018-08-17T07:36:29.921Z,1009.93
2018-08-17T07:37:10.521Z,1009.93
2018-08-17T07:37:51.358Z,1009.93
2018-08-17T07:38:31.933Z,1009.95
2018-08-17T07:39:12.503Z,1010
2018-08-17T07:39:53.108Z,1009.94
2018-08-17T07:40:33.749Z,1009.95
2018-08-17T07:41:14.350Z,1009.95
2018-08-17T07:41:54.974Z,1009.93
2018-08-17T07:42:35.553Z,1009.98
2018-08-17T07:43:16.537Z,1009.98
2018-08-17T07:43:57.125Z,1009.97
2018-08-17T07:44:37.699Z,1009.92
2018-08-17T07:45:18.276Z,1009.93
2018-08-17T07:45:58.869Z,1009.91
2018-08-17T07:46:39.455Z,1009.91
2018-08-17T07:47:20.029Z,1009.96
2018-08-17T07:48:00.637Z,1009.96
2018-08-17T07:48:41.234Z,1009.96
2018-08-17T07:49:21.927Z,1009.93
2018-08-17T07:50:02.517Z,1009.94
2018-08-17T07:50:43.089Z,1009.92
2018-08-17T07:51:23.668Z,1009.92
2018-08-17T07:52:04.283Z,1009.92
2018-08-17T07:52:44.867Z,1009.93
2018-08-17T07:53:25.441Z,1009.94
2018-08-17T07:54:06.107Z,1009.95
2018-08-17T07:54:46.699Z,1009.96
2018-08-17T07:55:27.293Z,1009.97
2018-08-17T07:56:07.867Z,1009.94
2018-08-17T07:56:48.460Z,1009.95
2018-08-17T07:57:29.077Z,1009.93
2018-08-17T07:58:09.635Z,1009.97
2018-08-17T07:58:50.218Z,1009.95
2018-08-17T07:59:30.815Z,1009.96
2018-08-17T08:00:11.411Z,1009.96
2018-08-17T08:00:51.961Z,1009.94
2018-08-17T08:01:32.564Z,1009.93
2018-08-17T08:02:13.134Z,1009.9
2018-08-17T08:02:53.716Z,1009.93
2018-08-17T08:03:34.338Z,1009.91
2018-08-17T08:04:14.949Z,1009.9
2018-08-17T08:04:55.539Z,1009.9
2018-08-17T08:05:36.125Z,1009.88
2018-08-17T08:06:16.705Z,1009.87
2018-08-17T08:06:57.327Z,1009.87
2018-08-17T08:07:38.138Z,1009.85
2018-08-17T08:08:18.746Z,1009.81
2018-08-17T08:08:59.367Z,1009.81
2018-08-17T08:09:39.924Z,1009.79
2018-08-17T08:10:20.759Z,1009.78
2018-08-17T08:11:01.413Z,1009.8
2018-08-17T08:11:41.985Z,1009.8
2018-08-17T08:12:22.579Z,1009.78
2018-08-17T08:13:03.169Z,1009.77
2018-08-17T08:13:43.899Z,1009.81
2018-08-17T08:14:24.375Z,1009.78
2018-08-17T08:15:04.970Z,1009.77